sensor_id;sensor_type;location;lat;lon;timestamp;pressure;altitude;pressure_sealevel;temperature;humidity
75551;BME280;65071;53.082;18.218;2022-11-30T00:00:38;102313.46;;;1.92;78.28
75551;BME280;65071;53.082;18.218;2022-11-30T00:03:17;102313.81;;;1.97;78.29
75551;BME280;65071;53.082;18.218;2022-11-30T00:05:43;102313.67;;;1.96;78.31
75551;BME280;65071;53.082;18.218;2022-11-30T00:08:09;102316.95;;;1.94;78.33
75551;BME280;65071;53.082;18.218;2022-11-30T00:10:37;102319.36;;;1.91;78.87
75551;BME280;65071;53.082;18.218;2022-11-30T00:13:03;102322.08;;;1.90;78.57
75551;BME280;65071;53.082;18.218;2022-11-30T00:15:29;102319.88;;;1.87;78.54
75551;BME280;65071;53.082;18.218;2022-11-30T00:17:56;102322.58;;;1.86;78.37
75551;BME280;65071;53.082;18.218;2022-11-30T00:20:23;102319.46;;;1.93;78.34
75551;BME280;65071;53.082;18.218;2022-11-30T00:22:49;102323.08;;;1.96;78.20
75551;BME280;65071;53.082;18.218;2022-11-30T00:25:15;102320.86;;;1.93;78.39
75551;BME280;65071;53.082;18.218;2022-11-30T00:27:41;102318.89;;;1.89;78.39
75551;BME280;65071;53.082;18.218;2022-11-30T00:30:07;102323.60;;;1.87;78.53
75551;BME280;65071;53.082;18.218;2022-11-30T00:32:33;102328.81;;;1.85;78.15
75551;BME280;65071;53.082;18.218;2022-11-30T00:35:00;102329.96;;;1.83;78.55
75551;BME280;65071;53.082;18.218;2022-11-30T00:37:26;102329.35;;;1.85;78.41
75551;BME280;65071;53.082;18.218;2022-11-30T00:39:51;102331.13;;;1.94;78.30
75551;BME280;65071;53.082;18.218;2022-11-30T00:42:17;102334.10;;;1.95;78.23
75551;BME280;65071;53.082;18.218;2022-11-30T00:44:43;102330.67;;;1.97;78.49
75551;BME280;65071;53.082;18.218;2022-11-30T00:47:09;102333.15;;;1.92;78.61
75551;BME280;65071;53.082;18.218;2022-11-30T00:49:35;102330.05;;;1.90;78.70
75551;BME280;65071;53.082;18.218;2022-11-30T00:52:01;102330.48;;;1.88;78.39
75551;BME280;65071;53.082;18.218;2022-11-30T00:54:27;102334.98;;;1.87;78.76
75551;BME280;65071;53.082;18.218;2022-11-30T00:56:53;102327.72;;;1.86;78.77
75551;BME280;65071;53.082;18.218;2022-11-30T00:59:19;102331.44;;;1.95;78.50
75551;BME280;65071;53.082;18.218;2022-11-30T01:01:45;102331.83;;;1.95;78.86
75551;BME280;65071;53.082;18.218;2022-11-30T01:04:11;102330.75;;;1.90;78.68
75551;BME280;65071;53.082;18.218;2022-11-30T01:06:36;102330.52;;;1.87;78.49
75551;BME280;65071;53.082;18.218;2022-11-30T01:09:03;102333.80;;;1.85;78.52
75551;BME280;65071;53.082;18.218;2022-11-30T01:11:30;102333.91;;;1.82;78.46
75551;BME280;65071;53.082;18.218;2022-11-30T01:13:58;102331.94;;;1.87;78.60
75551;BME280;65071;53.082;18.218;2022-11-30T01:16:27;102333.23;;;1.90;78.56
75551;BME280;65071;53.082;18.218;2022-11-30T01:18:54;102337.98;;;1.87;78.62
75551;BME280;65071;53.082;18.218;2022-11-30T01:21:25;102343.40;;;1.84;78.52
75551;BME280;65071;53.082;18.218;2022-11-30T01:23:51;102340.73;;;1.80;78.66
75551;BME280;65071;53.082;18.218;2022-11-30T01:26:18;102340.80;;;1.78;78.55
75551;BME280;65071;53.082;18.218;2022-11-30T01:28:49;102343.11;;;1.78;78.38
75551;BME280;65071;53.082;18.218;2022-11-30T01:31:16;102344.25;;;1.85;78.41
75551;BME280;65071;53.082;18.218;2022-11-30T01:33:42;102349.02;;;1.90;78.41
75551;BME280;65071;53.082;18.218;2022-11-30T01:36:10;102348.79;;;1.87;78.46
75551;BME280;65071;53.082;18.218;2022-11-30T01:38:42;102346.23;;;1.84;78.99
75551;BME280;65071;53.082;18.218;2022-11-30T01:41:09;102348.96;;;1.82;78.49
75551;BME280;65071;53.082;18.218;2022-11-30T01:43:46;102347.77;;;1.81;78.74
75551;BME280;65071;53.082;18.218;2022-11-30T01:46:29;102350.77;;;1.87;78.70
75551;BME280;65071;53.082;18.218;2022-11-30T01:49:09;102351.95;;;1.92;78.71
75551;BME280;65071;53.082;18.218;2022-11-30T01:51:39;102356.33;;;1.90;78.93
75551;BME280;65071;53.082;18.218;2022-11-30T01:54:08;102356.86;;;1.85;78.85
75551;BME280;65071;53.082;18.218;2022-11-30T01:56:37;102355.63;;;1.80;78.50
75551;BME280;65071;53.082;18.218;2022-11-30T01:59:05;102356.81;;;1.77;78.89
75551;BME280;65071;53.082;18.218;2022-11-30T02:01:31;102357.74;;;1.80;78.41
75551;BME280;65071;53.082;18.218;2022-11-30T02:04:05;102356.56;;;1.84;78.91
75551;BME280;65071;53.082;18.218;2022-11-30T02:06:33;102358.08;;;1.85;78.66
75551;BME280;65071;53.082;18.218;2022-11-30T02:09:00;102358.36;;;1.83;78.86
75551;BME280;65071;53.082;18.218;2022-11-30T02:11:26;102358.76;;;1.82;78.89
75551;BME280;65071;53.082;18.218;2022-11-30T02:16:53;102362.75;;;1.79;78.88
75551;BME280;65071;53.082;18.218;2022-11-30T02:19:37;102366.21;;;1.81;78.67
75551;BME280;65071;53.082;18.218;2022-11-30T02:30:34;102370.92;;;1.83;78.77
75551;BME280;65071;53.082;18.218;2022-11-30T02:33:07;102371.09;;;1.79;78.99
75551;BME280;65071;53.082;18.218;2022-11-30T02:35:37;102371.90;;;1.77;79.21
75551;BME280;65071;53.082;18.218;2022-11-30T02:38:05;102372.80;;;1.81;78.92
75551;BME280;65071;53.082;18.218;2022-11-30T02:40:31;102369.13;;;1.84;78.88
75551;BME280;65071;53.082;18.218;2022-11-30T02:42:59;102372.83;;;1.80;78.99
75551;BME280;65071;53.082;18.218;2022-11-30T02:48:10;102372.73;;;1.73;79.24
75551;BME280;65071;53.082;18.218;2022-11-30T02:50:46;102373.65;;;1.73;78.91
75551;BME280;65071;53.082;18.218;2022-11-30T02:53:13;102373.77;;;1.74;79.03
75551;BME280;65071;53.082;18.218;2022-11-30T02:55:39;102372.42;;;1.77;78.93
75551;BME280;65071;53.082;18.218;2022-11-30T02:58:05;102371.79;;;1.79;79.13
75551;BME280;65071;53.082;18.218;2022-11-30T03:00:31;102371.19;;;1.76;79.05
75551;BME280;65071;53.082;18.218;2022-11-30T03:02:57;102374.61;;;1.70;78.89
75551;BME280;65071;53.082;18.218;2022-11-30T03:05:23;102375.45;;;1.67;78.96
75551;BME280;65071;53.082;18.218;2022-11-30T03:07:49;102377.42;;;1.66;79.25
75551;BME280;65071;53.082;18.218;2022-11-30T03:10:15;102380.14;;;1.70;79.07
75551;BME280;65071;53.082;18.218;2022-11-30T03:12:41;102377.00;;;1.64;79.19
75551;BME280;65071;53.082;18.218;2022-11-30T03:15:08;102379.38;;;1.57;79.33
75551;BME280;65071;53.082;18.218;2022-11-30T03:17:34;102382.80;;;1.51;79.13
75551;BME280;65071;53.082;18.218;2022-11-30T03:20:00;102382.86;;;1.54;79.60
75551;BME280;65071;53.082;18.218;2022-11-30T03:22:26;102383.70;;;1.50;79.26
75551;BME280;65071;53.082;18.218;2022-11-30T03:24:52;102382.30;;;1.44;79.41
75551;BME280;65071;53.082;18.218;2022-11-30T03:27:18;102383.98;;;1.42;79.69
75551;BME280;65071;53.082;18.218;2022-11-30T03:29:44;102381.26;;;1.44;79.80
75551;BME280;65071;53.082;18.218;2022-11-30T03:32:09;102387.10;;;1.44;79.61
75551;BME280;65071;53.082;18.218;2022-11-30T03:34:35;102386.52;;;1.41;79.94
75551;BME280;65071;53.082;18.218;2022-11-30T03:37:02;102391.78;;;1.37;79.60
75551;BME280;65071;53.082;18.218;2022-11-30T03:39:28;102389.42;;;1.29;79.64
75551;BME280;65071;53.082;18.218;2022-11-30T03:41:54;102391.73;;;1.24;79.89
75551;BME280;65071;53.082;18.218;2022-11-30T03:44:19;102395.98;;;1.29;79.58
75551;BME280;65071;53.082;18.218;2022-11-30T03:46:45;102398.61;;;1.25;79.79
75551;BME280;65071;53.082;18.218;2022-11-30T03:49:11;102404.34;;;1.18;79.72
75551;BME280;65071;53.082;18.218;2022-11-30T03:51:37;102402.75;;;1.13;79.73
75551;BME280;65071;53.082;18.218;2022-11-30T03:54:03;102408.83;;;1.12;79.75
75551;BME280;65071;53.082;18.218;2022-11-30T03:56:29;102408.42;;;1.13;80.02
75551;BME280;65071;53.082;18.218;2022-11-30T03:58:55;102405.80;;;1.17;80.26
75551;BME280;65071;53.082;18.218;2022-11-30T04:01:22;102407.20;;;1.12;80.19
75551;BME280;65071;53.082;18.218;2022-11-30T04:03:49;102405.32;;;1.11;80.15
75551;BME280;65071;53.082;18.218;2022-11-30T04:06:17;102411.07;;;1.08;79.95
75551;BME280;65071;53.082;18.218;2022-11-30T04:08:43;102407.63;;;1.10;80.19
75551;BME280;65071;53.082;18.218;2022-11-30T04:11:10;102411.17;;;1.16;79.97
75551;BME280;65071;53.082;18.218;2022-11-30T04:13:37;102414.50;;;1.11;80.07
75551;BME280;65071;53.082;18.218;2022-11-30T04:16:04;102415.88;;;1.07;80.22
75551;BME280;65071;53.082;18.218;2022-11-30T04:18:32;102416.41;;;1.02;80.21
75551;BME280;65071;53.082;18.218;2022-11-30T04:20:59;102423.27;;;1.03;80.35
75551;BME280;65071;53.082;18.218;2022-11-30T04:23:29;102422.21;;;1.09;79.88
75551;BME280;65071;53.082;18.218;2022-11-30T04:25:56;102421.67;;;1.04;80.41
75551;BME280;65071;53.082;18.218;2022-11-30T04:28:22;102422.17;;;1.00;80.23
75551;BME280;65071;53.082;18.218;2022-11-30T04:30:48;102420.96;;;0.98;80.37
75551;BME280;65071;53.082;18.218;2022-11-30T04:33:15;102422.52;;;1.05;80.22
75551;BME280;65071;53.082;18.218;2022-11-30T04:35:44;102422.77;;;1.03;80.08
75551;BME280;65071;53.082;18.218;2022-11-30T04:38:11;102425.05;;;0.98;80.35
75551;BME280;65071;53.082;18.218;2022-11-30T04:40:39;102424.30;;;0.94;80.36
75551;BME280;65071;53.082;18.218;2022-11-30T04:43:05;102422.13;;;0.95;80.35
75551;BME280;65071;53.082;18.218;2022-11-30T04:45:31;102422.59;;;1.03;80.43
75551;BME280;65071;53.082;18.218;2022-11-30T04:47:57;102424.20;;;1.02;80.49
75551;BME280;65071;53.082;18.218;2022-11-30T04:50:23;102430.66;;;1.00;80.41
75551;BME280;65071;53.082;18.218;2022-11-30T04:52:49;102433.56;;;0.98;80.15
75551;BME280;65071;53.082;18.218;2022-11-30T04:55:15;102432.05;;;0.95;80.41
75551;BME280;65071;53.082;18.218;2022-11-30T04:57:47;102435.58;;;1.01;80.31
75551;BME280;65071;53.082;18.218;2022-11-30T05:00:15;102434.04;;;1.05;80.25
75551;BME280;65071;53.082;18.218;2022-11-30T05:02:42;102439.45;;;1.02;80.49
75551;BME280;65071;53.082;18.218;2022-11-30T05:05:09;102438.64;;;1.00;80.42
75551;BME280;65071;53.082;18.218;2022-11-30T05:07:35;102438.77;;;0.96;80.33
75551;BME280;65071;53.082;18.218;2022-11-30T05:10:02;102438.56;;;0.96;80.26
75551;BME280;65071;53.082;18.218;2022-11-30T05:12:28;102440.37;;;0.96;80.23
75551;BME280;65071;53.082;18.218;2022-11-30T05:14:54;102444.07;;;0.91;79.98
75551;BME280;65071;53.082;18.218;2022-11-30T05:17:20;102441.88;;;0.88;80.32
75551;BME280;65071;53.082;18.218;2022-11-30T05:19:46;102443.12;;;0.88;80.19
75551;BME280;65071;53.082;18.218;2022-11-30T05:22:11;102447.15;;;0.95;79.97
75551;BME280;65071;53.082;18.218;2022-11-30T05:24:37;102449.11;;;0.89;80.20
75551;BME280;65071;53.082;18.218;2022-11-30T05:27:03;102450.80;;;0.86;80.31
75551;BME280;65071;53.082;18.218;2022-11-30T05:29:29;102449.80;;;0.84;80.27
75551;BME280;65071;53.082;18.218;2022-11-30T05:31:55;102450.51;;;0.90;80.29
75551;BME280;65071;53.082;18.218;2022-11-30T05:34:21;102458.80;;;0.89;80.36
75551;BME280;65071;53.082;18.218;2022-11-30T05:36:47;102456.13;;;0.85;80.38
75551;BME280;65071;53.082;18.218;2022-11-30T05:39:13;102459.04;;;0.83;80.27
75551;BME280;65071;53.082;18.218;2022-11-30T05:41:39;102460.98;;;0.84;80.07
75551;BME280;65071;53.082;18.218;2022-11-30T05:44:04;102462.84;;;0.92;80.59
75551;BME280;65071;53.082;18.218;2022-11-30T05:46:31;102465.41;;;0.94;80.25
75551;BME280;65071;53.082;18.218;2022-11-30T05:48:56;102469.12;;;0.89;80.41
75551;BME280;65071;53.082;18.218;2022-11-30T05:51:22;102473.91;;;0.83;80.62
75551;BME280;65071;53.082;18.218;2022-11-30T05:53:48;102475.70;;;0.88;80.20
75551;BME280;65071;53.082;18.218;2022-11-30T05:56:17;102473.70;;;0.90;80.27
75551;BME280;65071;53.082;18.218;2022-11-30T05:58:44;102474.47;;;0.88;80.23
75551;BME280;65071;53.082;18.218;2022-11-30T06:01:18;102473.55;;;0.84;80.03
75551;BME280;65071;53.082;18.218;2022-11-30T06:03:44;102474.45;;;0.83;80.22
75551;BME280;65071;53.082;18.218;2022-11-30T06:06:11;102477.11;;;0.88;80.26
75551;BME280;65071;53.082;18.218;2022-11-30T06:08:36;102479.59;;;0.88;80.17
75551;BME280;65071;53.082;18.218;2022-11-30T06:11:02;102478.98;;;0.85;80.18
75551;BME280;65071;53.082;18.218;2022-11-30T06:13:28;102480.68;;;0.82;80.14
75551;BME280;65071;53.082;18.218;2022-11-30T06:16:01;102480.16;;;0.82;80.45
75551;BME280;65071;53.082;18.218;2022-11-30T06:18:27;102476.78;;;0.87;80.33
75551;BME280;65071;53.082;18.218;2022-11-30T06:20:57;102482.29;;;0.87;80.24
75551;BME280;65071;53.082;18.218;2022-11-30T06:23:23;102484.11;;;0.85;80.34
75551;BME280;65071;53.082;18.218;2022-11-30T06:25:49;102489.64;;;0.84;80.36
75551;BME280;65071;53.082;18.218;2022-11-30T06:28:15;102492.34;;;0.88;80.26
75551;BME280;65071;53.082;18.218;2022-11-30T06:30:41;102493.52;;;0.90;80.51
75551;BME280;65071;53.082;18.218;2022-11-30T06:33:07;102494.27;;;0.89;80.43
75551;BME280;65071;53.082;18.218;2022-11-30T06:35:33;102496.78;;;0.88;80.20
75551;BME280;65071;53.082;18.218;2022-11-30T06:37:59;102497.16;;;0.87;80.07
75551;BME280;65071;53.082;18.218;2022-11-30T06:40:28;102495.95;;;0.92;80.14
75551;BME280;65071;53.082;18.218;2022-11-30T06:42:54;102497.26;;;0.95;80.14
75551;BME280;65071;53.082;18.218;2022-11-30T06:45:20;102500.60;;;0.90;80.56
75551;BME280;65071;53.082;18.218;2022-11-30T06:47:46;102498.37;;;0.88;80.33
75551;BME280;65071;53.082;18.218;2022-11-30T06:50:12;102501.05;;;0.87;80.20
75551;BME280;65071;53.082;18.218;2022-11-30T06:52:39;102504.28;;;0.92;80.23
75551;BME280;65071;53.082;18.218;2022-11-30T06:55:05;102507.66;;;0.97;80.42
75551;BME280;65071;53.082;18.218;2022-11-30T06:57:31;102510.06;;;0.94;80.05
75551;BME280;65071;53.082;18.218;2022-11-30T06:59:57;102506.94;;;0.91;80.24
75551;BME280;65071;53.082;18.218;2022-11-30T07:02:23;102510.48;;;0.91;80.17
75551;BME280;65071;53.082;18.218;2022-11-30T07:04:49;102508.05;;;1.01;80.27
75551;BME280;65071;53.082;18.218;2022-11-30T07:07:15;102507.46;;;1.08;80.13
75551;BME280;65071;53.082;18.218;2022-11-30T07:09:41;102512.53;;;1.10;80.44
75551;BME280;65071;53.082;18.218;2022-11-30T07:12:07;102516.78;;;1.10;80.57
75551;BME280;65071;53.082;18.218;2022-11-30T07:14:33;102518.62;;;1.08;80.16
75551;BME280;65071;53.082;18.218;2022-11-30T07:16:59;102522.20;;;1.07;80.00
75551;BME280;65071;53.082;18.218;2022-11-30T07:19:30;102522.67;;;1.14;79.93
75551;BME280;65071;53.082;18.218;2022-11-30T07:21:57;102526.71;;;1.20;80.19
75551;BME280;65071;53.082;18.218;2022-11-30T07:24:23;102529.27;;;1.18;80.04
75551;BME280;65071;53.082;18.218;2022-11-30T07:27:07;102531.20;;;1.14;80.09
75551;BME280;65071;53.082;18.218;2022-11-30T07:29:33;102536.09;;;1.10;79.78
75551;BME280;65071;53.082;18.218;2022-11-30T07:31:59;102538.61;;;1.09;80.02
75551;BME280;65071;53.082;18.218;2022-11-30T07:34:25;102542.91;;;1.18;79.92
75551;BME280;65071;53.082;18.218;2022-11-30T07:36:51;102543.95;;;1.19;80.09
75551;BME280;65071;53.082;18.218;2022-11-30T07:39:17;102547.08;;;1.16;80.12
75551;BME280;65071;53.082;18.218;2022-11-30T07:41:43;102545.86;;;1.15;80.15
75551;BME280;65071;53.082;18.218;2022-11-30T07:44:09;102542.00;;;1.14;79.95
75551;BME280;65071;53.082;18.218;2022-11-30T07:46:37;102548.90;;;1.14;80.01
75551;BME280;65071;53.082;18.218;2022-11-30T07:49:05;102549.36;;;1.21;79.74
75551;BME280;65071;53.082;18.218;2022-11-30T07:51:32;102554.75;;;1.25;79.64
75551;BME280;65071;53.082;18.218;2022-11-30T07:53:58;102553.65;;;1.25;79.52
75551;BME280;65071;53.082;18.218;2022-11-30T07:56:25;102553.13;;;1.20;79.86
75551;BME280;65071;53.082;18.218;2022-11-30T07:58:57;102556.36;;;1.19;79.83
75551;BME280;65071;53.082;18.218;2022-11-30T08:01:26;102553.04;;;1.23;79.31
75551;BME280;65071;53.082;18.218;2022-11-30T08:03:53;102551.85;;;1.27;79.33
75551;BME280;65071;53.082;18.218;2022-11-30T08:06:23;102552.45;;;1.25;78.99
75551;BME280;65071;53.082;18.218;2022-11-30T08:08:50;102553.98;;;1.21;78.85
75551;BME280;65071;53.082;18.218;2022-11-30T08:11:19;102555.96;;;1.20;78.62
75551;BME280;65071;53.082;18.218;2022-11-30T08:13:46;102556.52;;;1.25;78.76
75551;BME280;65071;53.082;18.218;2022-11-30T08:16:15;102556.23;;;1.28;78.73
75551;BME280;65071;53.082;18.218;2022-11-30T08:18:42;102559.71;;;1.24;78.52
75551;BME280;65071;53.082;18.218;2022-11-30T08:21:10;102556.92;;;1.23;78.84
75551;BME280;65071;53.082;18.218;2022-11-30T08:23:39;102558.14;;;1.24;78.70
75551;BME280;65071;53.082;18.218;2022-11-30T08:26:13;102559.08;;;1.33;78.19
75551;BME280;65071;53.082;18.218;2022-11-30T08:28:41;102560.25;;;1.35;78.34
75551;BME280;65071;53.082;18.218;2022-11-30T08:31:10;102563.23;;;1.31;78.36
75551;BME280;65071;53.082;18.218;2022-11-30T08:33:37;102568.98;;;1.29;78.19
75551;BME280;65071;53.082;18.218;2022-11-30T08:36:07;102567.91;;;1.28;78.26
75551;BME280;65071;53.082;18.218;2022-11-30T08:38:33;102568.00;;;1.36;78.10
75551;BME280;65071;53.082;18.218;2022-11-30T08:40:59;102569.75;;;1.37;77.98
75551;BME280;65071;53.082;18.218;2022-11-30T08:43:27;102572.21;;;1.33;77.84
75551;BME280;65071;53.082;18.218;2022-11-30T08:45:53;102575.73;;;1.28;77.63
75551;BME280;65071;53.082;18.218;2022-11-30T08:48:19;102575.30;;;1.24;78.16
75551;BME280;65071;53.082;18.218;2022-11-30T08:50:45;102579.52;;;1.31;77.74
75551;BME280;65071;53.082;18.218;2022-11-30T08:53:11;102578.42;;;1.38;77.96
75551;BME280;65071;53.082;18.218;2022-11-30T08:55:37;102584.45;;;1.38;78.12
75551;BME280;65071;53.082;18.218;2022-11-30T08:58:03;102584.35;;;1.35;78.01
75551;BME280;65071;53.082;18.218;2022-11-30T09:00:29;102590.95;;;1.34;77.91
75551;BME280;65071;53.082;18.218;2022-11-30T09:02:55;102588.20;;;1.36;77.78
75551;BME280;65071;53.082;18.218;2022-11-30T09:05:21;102593.42;;;1.45;77.97
75551;BME280;65071;53.082;18.218;2022-11-30T09:07:47;102603.69;;;1.51;77.72
75551;BME280;65071;53.082;18.218;2022-11-30T09:10:13;102600.26;;;1.48;78.03
75551;BME280;65071;53.082;18.218;2022-11-30T09:12:39;102596.91;;;1.47;77.60
75551;BME280;65071;53.082;18.218;2022-11-30T09:15:07;102595.98;;;1.49;77.93
75551;BME280;65071;53.082;18.218;2022-11-30T09:17:34;102596.91;;;1.53;77.76
75551;BME280;65071;53.082;18.218;2022-11-30T09:20:00;102596.36;;;1.59;77.42
75551;BME280;65071;53.082;18.218;2022-11-30T09:22:27;102601.27;;;1.55;77.47
75551;BME280;65071;53.082;18.218;2022-11-30T09:24:53;102600.64;;;1.52;77.24
75551;BME280;65071;53.082;18.218;2022-11-30T09:27:20;102605.56;;;1.54;77.22
75551;BME280;65071;53.082;18.218;2022-11-30T09:29:45;102609.04;;;1.56;77.43
75551;BME280;65071;53.082;18.218;2022-11-30T09:32:11;102609.09;;;1.59;77.22
75551;BME280;65071;53.082;18.218;2022-11-30T09:34:37;102610.81;;;1.56;77.05
75551;BME280;65071;53.082;18.218;2022-11-30T09:37:03;102614.69;;;1.51;77.35
75551;BME280;65071;53.082;18.218;2022-11-30T09:39:29;102613.38;;;1.48;77.48
75551;BME280;65071;53.082;18.218;2022-11-30T09:42:25;102614.43;;;1.54;77.30
75551;BME280;65071;53.082;18.218;2022-11-30T09:45:05;102615.36;;;1.58;76.87
75551;BME280;65071;53.082;18.218;2022-11-30T09:50:21;102606.52;;;1.46;76.79
75551;BME280;65071;53.082;18.218;2022-11-30T09:52:57;102603.95;;;1.43;77.43
75551;BME280;65071;53.082;18.218;2022-11-30T09:55:29;102606.34;;;1.51;77.26
75551;BME280;65071;53.082;18.218;2022-11-30T09:57:59;102599.70;;;1.54;77.16
75551;BME280;65071;53.082;18.218;2022-11-30T10:00:27;102602.07;;;1.52;77.35
75551;BME280;65071;53.082;18.218;2022-11-30T10:02:56;102599.89;;;1.54;77.39
75551;BME280;65071;53.082;18.218;2022-11-30T10:05:27;102599.88;;;1.54;77.26
75551;BME280;65071;53.082;18.218;2022-11-30T10:10:41;102604.69;;;1.59;77.28
75551;BME280;65071;53.082;18.218;2022-11-30T10:16:10;102605.73;;;1.54;76.92
75551;BME280;65071;53.082;18.218;2022-11-30T10:26:55;102599.73;;;1.59;76.81
75551;BME280;65071;53.082;18.218;2022-11-30T10:29:34;102598.98;;;1.55;76.67
75551;BME280;65071;53.082;18.218;2022-11-30T10:32:12;102602.38;;;1.59;76.70
75551;BME280;65071;53.082;18.218;2022-11-30T10:34:43;102597.14;;;1.62;76.73
75551;BME280;65071;53.082;18.218;2022-11-30T10:37:16;102595.42;;;1.60;76.33
75551;BME280;65071;53.082;18.218;2022-11-30T10:42:35;102589.11;;;1.63;76.40
75551;BME280;65071;53.082;18.218;2022-11-30T10:45:06;102584.06;;;1.71;76.40
75551;BME280;65071;53.082;18.218;2022-11-30T10:47:42;102581.58;;;1.70;76.16
75551;BME280;65071;53.082;18.218;2022-11-30T10:50:14;102579.38;;;1.67;76.58
75551;BME280;65071;53.082;18.218;2022-11-30T10:52:44;102578.10;;;1.64;76.30
75551;BME280;65071;53.082;18.218;2022-11-30T10:55:20;102580.17;;;1.65;76.29
75551;BME280;65071;53.082;18.218;2022-11-30T10:57:51;102584.26;;;1.75;76.57
75551;BME280;65071;53.082;18.218;2022-11-30T11:00:19;102578.56;;;1.81;76.69
75551;BME280;65071;53.082;18.218;2022-11-30T11:02:50;102580.10;;;1.83;76.27
75551;BME280;65071;53.082;18.218;2022-11-30T11:07:59;102579.23;;;1.76;76.11
75551;BME280;65071;53.082;18.218;2022-11-30T11:10:33;102580.67;;;1.71;76.35
75551;BME280;65071;53.082;18.218;2022-11-30T11:13:00;102579.21;;;1.78;76.24
75551;BME280;65071;53.082;18.218;2022-11-30T11:15:28;102578.83;;;1.83;76.11
75551;BME280;65071;53.082;18.218;2022-11-30T11:20:46;102582.73;;;1.73;75.88
75551;BME280;65071;53.082;18.218;2022-11-30T11:23:35;102585.02;;;1.68;75.82
75551;BME280;65071;53.082;18.218;2022-11-30T11:26:03;102583.35;;;1.66;76.10
75551;BME280;65071;53.082;18.218;2022-11-30T11:28:31;102583.80;;;1.68;76.13
75551;BME280;65071;53.082;18.218;2022-11-30T11:30:57;102586.77;;;1.69;75.95
75551;BME280;65071;53.082;18.218;2022-11-30T11:33:26;102587.02;;;1.62;75.98
75551;BME280;65071;53.082;18.218;2022-11-30T11:36:13;102587.29;;;1.59;76.24
75551;BME280;65071;53.082;18.218;2022-11-30T11:38:42;102584.02;;;1.56;75.78
75551;BME280;65071;53.082;18.218;2022-11-30T11:41:25;102586.74;;;1.55;76.07
75551;BME280;65071;53.082;18.218;2022-11-30T11:44:18;102589.89;;;1.66;76.21
75551;BME280;65071;53.082;18.218;2022-11-30T11:46:57;102588.20;;;1.74;76.54
75551;BME280;65071;53.082;18.218;2022-11-30T11:49:26;102590.67;;;1.74;76.13
75551;BME280;65071;53.082;18.218;2022-11-30T11:54:43;102592.87;;;1.62;76.08
75551;BME280;65071;53.082;18.218;2022-11-30T11:57:14;102596.60;;;1.56;75.80
75551;BME280;65071;53.082;18.218;2022-11-30T11:59:49;102594.98;;;1.52;75.77
75551;BME280;65071;53.082;18.218;2022-11-30T12:05:02;102594.69;;;1.61;76.26
75551;BME280;65071;53.082;18.218;2022-11-30T12:11:01;102596.89;;;1.59;75.69
75551;BME280;65071;53.082;18.218;2022-11-30T12:13:37;102595.15;;;1.53;75.91
75551;BME280;65071;53.082;18.218;2022-11-30T12:16:36;102596.32;;;1.49;76.03
75551;BME280;65071;53.082;18.218;2022-11-30T12:19:24;102598.30;;;1.53;76.26
75551;BME280;65071;53.082;18.218;2022-11-30T12:24:51;102601.95;;;1.56;75.79
75551;BME280;65071;53.082;18.218;2022-11-30T12:30:20;102605.00;;;1.49;76.03
75551;BME280;65071;53.082;18.218;2022-11-30T12:33:10;102608.52;;;1.50;75.90
75551;BME280;65071;53.082;18.218;2022-11-30T12:36:09;102603.86;;;1.57;76.20
75551;BME280;65071;53.082;18.218;2022-11-30T12:38:42;102605.52;;;1.61;76.38
75551;BME280;65071;53.082;18.218;2022-11-30T12:44:14;102598.39;;;1.45;76.33
75551;BME280;65071;53.082;18.218;2022-11-30T12:52:00;102600.48;;;1.52;76.36
75551;BME280;65071;53.082;18.218;2022-11-30T12:57:59;102597.52;;;1.45;76.59
75551;BME280;65071;53.082;18.218;2022-11-30T13:00:34;102595.20;;;1.45;76.76
75551;BME280;65071;53.082;18.218;2022-11-30T13:03:26;102597.44;;;1.53;76.44
75551;BME280;65071;53.082;18.218;2022-11-30T13:06:00;102597.38;;;1.49;76.67
75551;BME280;65071;53.082;18.218;2022-11-30T13:08:47;102595.89;;;1.45;76.60
75551;BME280;65071;53.082;18.218;2022-11-30T13:11:33;102598.73;;;1.45;76.76
75551;BME280;65071;53.082;18.218;2022-11-30T13:13:59;102596.42;;;1.51;76.83
75551;BME280;65071;53.082;18.218;2022-11-30T13:16:28;102596.85;;;1.55;76.72
75551;BME280;65071;53.082;18.218;2022-11-30T13:19:28;102599.69;;;1.49;76.62
75551;BME280;65071;53.082;18.218;2022-11-30T13:21:56;102601.58;;;1.45;76.35
75551;BME280;65071;53.082;18.218;2022-11-30T13:24:28;102601.70;;;1.41;76.88
75551;BME280;65071;53.082;18.218;2022-11-30T13:27:00;102603.41;;;1.43;76.44
75551;BME280;65071;53.082;18.218;2022-11-30T13:32:13;102605.00;;;1.43;76.67
75551;BME280;65071;53.082;18.218;2022-11-30T13:34:40;102605.38;;;1.37;76.58
75551;BME280;65071;53.082;18.218;2022-11-30T13:37:10;102606.64;;;1.31;76.39
75551;BME280;65071;53.082;18.218;2022-11-30T13:39:56;102604.36;;;1.30;76.71
75551;BME280;65071;53.082;18.218;2022-11-30T13:42:43;102607.20;;;1.36;76.42
75551;BME280;65071;53.082;18.218;2022-11-30T13:47:44;102607.48;;;1.27;76.39
75551;BME280;65071;53.082;18.218;2022-11-30T13:58:09;102613.80;;;1.24;76.87
75551;BME280;65071;53.082;18.218;2022-11-30T14:05:52;102619.30;;;1.23;76.87
75551;BME280;65071;53.082;18.218;2022-11-30T14:10:48;102624.96;;;1.18;76.48
75551;BME280;65071;53.082;18.218;2022-11-30T14:23:25;102625.11;;;1.13;76.42
75551;BME280;65071;53.082;18.218;2022-11-30T14:25:56;102623.60;;;1.11;76.97
75551;BME280;65071;53.082;18.218;2022-11-30T14:28:36;102620.43;;;1.10;76.87
75551;BME280;65071;53.082;18.218;2022-11-30T14:31:06;102620.45;;;1.15;76.72
75551;BME280;65071;53.082;18.218;2022-11-30T14:33:56;102621.17;;;1.15;76.88
75551;BME280;65071;53.082;18.218;2022-11-30T14:36:32;102621.48;;;1.11;76.62